sensor_id;sensor_type;location;lat;lon;timestamp;temperature;humidity
19930;DHT22;10127;47.780;9.606;2023-02-26T00:01:10;2.70;99.90
19930;DHT22;10127;47.780;9.606;2023-02-26T00:03:36;2.70;99.90
19930;DHT22;10127;47.780;9.606;2023-02-26T00:06:02;2.70;99.90
19930;DHT22;10127;47.780;9.606;2023-02-26T00:08:27;2.80;99.90
19930;DHT22;10127;47.780;9.606;2023-02-26T00:10:53;2.90;99.90
19930;DHT22;10127;47.780;9.606;2023-02-26T00:13:19;2.90;99.90
19930;DHT22;10127;47.780;9.606;2023-02-26T00:15:45;2.90;99.90
19930;DHT22;10127;47.780;9.606;2023-02-26T00:18:14;2.80;99.90
19930;DHT22;10127;47.780;9.606;2023-02-26T00:20:40;2.70;99.90
19930;DHT22;10127;47.780;9.606;2023-02-26T00:23:10;2.70;99.90
19930;DHT22;10127;47.780;9.606;2023-02-26T00:25:39;2.50;99.90
19930;DHT22;10127;47.780;9.606;2023-02-26T00:28:05;2.40;99.90
19930;DHT22;10127;47.780;9.606;2023-02-26T00:30:31;2.40;99.90
19930;DHT22;10127;47.780;9.606;2023-02-26T00:32:57;2.40;99.90
19930;DHT22;10127;47.780;9.606;2023-02-26T00:35:23;2.40;99.90
19930;DHT22;10127;47.780;9.606;2023-02-26T00:43:14;2.30;99.90
19930;DHT22;10127;47.780;9.606;2023-02-26T00:46:30;2.30;99.90
19930;DHT22;10127;47.780;9.606;2023-02-26T00:49:02;2.20;99.90
19930;DHT22;10127;47.780;9.606;2023-02-26T00:51:55;2.20;99.90
19930;DHT22;10127;47.780;9.606;2023-02-26T00:54:21;2.00;99.90
19930;DHT22;10127;47.780;9.606;2023-02-26T00:56:48;2.00;99.90
19930;DHT22;10127;47.780;9.606;2023-02-26T00:59:14;2.00;99.90
19930;DHT22;10127;47.780;9.606;2023-02-26T01:01:41;1.90;99.90
19930;DHT22;10127;47.780;9.606;2023-02-26T01:04:07;1.70;99.90
19930;DHT22;10127;47.780;9.606;2023-02-26T01:06:34;1.70;99.90
19930;DHT22;10127;47.780;9.606;2023-02-26T01:11:44;1.50;99.90
19930;DHT22;10127;47.780;9.606;2023-02-26T01:14:10;1.40;99.90
19930;DHT22;10127;47.780;9.606;2023-02-26T01:19:38;1.30;99.90
19930;DHT22;10127;47.780;9.606;2023-02-26T01:22:12;1.30;99.90
19930;DHT22;10127;47.780;9.606;2023-02-26T01:24:40;1.40;99.90
19930;DHT22;10127;47.780;9.606;2023-02-26T01:27:06;1.40;99.90
19930;DHT22;10127;47.780;9.606;2023-02-26T01:29:32;1.40;99.90
19930;DHT22;10127;47.780;9.606;2023-02-26T01:32:10;1.40;99.90
19930;DHT22;10127;47.780;9.606;2023-02-26T01:37:28;1.50;99.90
19930;DHT22;10127;47.780;9.606;2023-02-26T01:43:18;1.50;99.90
19930;DHT22;10127;47.780;9.606;2023-02-26T01:46:00;1.60;99.90
19930;DHT22;10127;47.780;9.606;2023-02-26T01:48:52;1.70;99.90
19930;DHT22;10127;47.780;9.606;2023-02-26T01:51:49;1.60;99.90
19930;DHT22;10127;47.780;9.606;2023-02-26T01:54:18;1.50;99.90
19930;DHT22;10127;47.780;9.606;2023-02-26T01:56:44;1.50;99.90
19930;DHT22;10127;47.780;9.606;2023-02-26T01:59:14;1.70;99.90
19930;DHT22;10127;47.780;9.606;2023-02-26T02:01:40;1.60;99.90
19930;DHT22;10127;47.780;9.606;2023-02-26T02:04:10;1.50;99.90
19930;DHT22;10127;47.780;9.606;2023-02-26T02:06:37;1.50;99.90
19930;DHT22;10127;47.780;9.606;2023-02-26T02:09:07;1.60;99.90
19930;DHT22;10127;47.780;9.606;2023-02-26T02:11:33;1.70;99.90
19930;DHT22;10127;47.780;9.606;2023-02-26T02:14:11;1.80;99.90
19930;DHT22;10127;47.780;9.606;2023-02-26T02:16:49;1.90;99.90
19930;DHT22;10127;47.780;9.606;2023-02-26T02:19:41;2.00;99.90
19930;DHT22;10127;47.780;9.606;2023-02-26T02:33:29;1.90;99.90
19930;DHT22;10127;47.780;9.606;2023-02-26T02:36:02;1.90;99.90
19930;DHT22;10127;47.780;9.606;2023-02-26T02:38:52;2.00;99.90
19930;DHT22;10127;47.780;9.606;2023-02-26T02:41:25;1.80;99.90
19930;DHT22;10127;47.780;9.606;2023-02-26T02:43:54;1.70;99.90
19930;DHT22;10127;47.780;9.606;2023-02-26T02:46:27;1.90;99.90
19930;DHT22;10127;47.780;9.606;2023-02-26T02:49:06;2.10;99.90
19930;DHT22;10127;47.780;9.606;2023-02-26T03:12:11;1.30;99.90
19930;DHT22;10127;47.780;9.606;2023-02-26T03:14:37;1.20;99.90
19930;DHT22;10127;47.780;9.606;2023-02-26T03:24:37;1.30;99.90
19930;DHT22;10127;47.780;9.606;2023-02-26T03:29:50;1.20;99.90
19930;DHT22;10127;47.780;9.606;2023-02-26T03:32:28;1.30;99.90
19930;DHT22;10127;47.780;9.606;2023-02-26T03:35:18;1.30;99.90
19930;DHT22;10127;47.780;9.606;2023-02-26T03:37:49;1.20;99.90
19930;DHT22;10127;47.780;9.606;2023-02-26T03:40:36;1.10;99.90
19930;DHT22;10127;47.780;9.606;2023-02-26T03:43:15;1.20;99.90
19930;DHT22;10127;47.780;9.606;2023-02-26T03:45:45;1.30;99.90
19930;DHT22;10127;47.780;9.606;2023-02-26T03:48:16;1.20;99.90
19930;DHT22;10127;47.780;9.606;2023-02-26T03:50:53;1.20;99.90
19930;DHT22;10127;47.780;9.606;2023-02-26T03:53:33;1.20;99.90
19930;DHT22;10127;47.780;9.606;2023-02-26T03:56:15;1.20;99.90
19930;DHT22;10127;47.780;9.606;2023-02-26T03:58:42;1.10;99.90
19930;DHT22;10127;47.780;9.606;2023-02-26T04:01:32;1.20;99.90
19930;DHT22;10127;47.780;9.606;2023-02-26T04:04:14;1.20;99.90
19930;DHT22;10127;47.780;9.606;2023-02-26T04:06:42;0.90;99.90
19930;DHT22;10127;47.780;9.606;2023-02-26T04:09:08;1.00;99.90
19930;DHT22;10127;47.780;9.606;2023-02-26T04:11:34;1.10;99.90
19930;DHT22;10127;47.780;9.606;2023-02-26T04:14:01;1.20;99.90
19930;DHT22;10127;47.780;9.606;2023-02-26T04:16:27;1.30;99.90
19930;DHT22;10127;47.780;9.606;2023-02-26T04:18:53;1.30;99.90
19930;DHT22;10127;47.780;9.606;2023-02-26T04:21:21;1.30;99.90
19930;DHT22;10127;47.780;9.606;2023-02-26T04:23:46;1.30;99.90
19930;DHT22;10127;47.780;9.606;2023-02-26T04:26:13;1.30;99.90
19930;DHT22;10127;47.780;9.606;2023-02-26T04:28:40;1.30;99.90
19930;DHT22;10127;47.780;9.606;2023-02-26T04:31:06;1.30;99.90
19930;DHT22;10127;47.780;9.606;2023-02-26T04:33:32;1.20;99.90
19930;DHT22;10127;47.780;9.606;2023-02-26T04:35:59;1.10;99.90
19930;DHT22;10127;47.780;9.606;2023-02-26T04:38:24;1.10;99.90
19930;DHT22;10127;47.780;9.606;2023-02-26T04:40:50;0.90;99.90
19930;DHT22;10127;47.780;9.606;2023-02-26T04:43:16;0.80;99.90
19930;DHT22;10127;47.780;9.606;2023-02-26T04:45:45;0.60;99.90
19930;DHT22;10127;47.780;9.606;2023-02-26T04:48:11;0.40;99.90
19930;DHT22;10127;47.780;9.606;2023-02-26T04:50:37;0.50;99.90
19930;DHT22;10127;47.780;9.606;2023-02-26T04:53:03;0.70;99.90
19930;DHT22;10127;47.780;9.606;2023-02-26T04:55:28;0.70;99.90
19930;DHT22;10127;47.780;9.606;2023-02-26T04:57:54;0.60;99.90
19930;DHT22;10127;47.780;9.606;2023-02-26T05:00:19;0.70;99.90
19930;DHT22;10127;47.780;9.606;2023-02-26T05:02:45;0.80;99.90
19930;DHT22;10127;47.780;9.606;2023-02-26T05:05:11;0.70;99.90
19930;DHT22;10127;47.780;9.606;2023-02-26T05:07:36;0.80;99.90
19930;DHT22;10127;47.780;9.606;2023-02-26T05:10:04;0.80;99.90
19930;DHT22;10127;47.780;9.606;2023-02-26T05:12:30;0.70;99.90
19930;DHT22;10127;47.780;9.606;2023-02-26T05:14:56;0.60;99.90
19930;DHT22;10127;47.780;9.606;2023-02-26T05:17:21;0.50;99.90
19930;DHT22;10127;47.780;9.606;2023-02-26T05:19:47;0.50;99.90
19930;DHT22;10127;47.780;9.606;2023-02-26T05:22:13;0.50;99.90
19930;DHT22;10127;47.780;9.606;2023-02-26T05:24:39;0.20;99.90
19930;DHT22;10127;47.780;9.606;2023-02-26T05:27:04;0.10;99.90
19930;DHT22;10127;47.780;9.606;2023-02-26T05:29:31;0.00;99.90
19930;DHT22;10127;47.780;9.606;2023-02-26T05:31:56;-0.20;99.90
19930;DHT22;10127;47.780;9.606;2023-02-26T05:34:22;-0.20;99.90
19930;DHT22;10127;47.780;9.606;2023-02-26T05:36:48;-0.10;99.90
19930;DHT22;10127;47.780;9.606;2023-02-26T05:39:14;-0.10;99.90
19930;DHT22;10127;47.780;9.606;2023-02-26T05:41:39;0.00;99.90
19930;DHT22;10127;47.780;9.606;2023-02-26T05:44:05;0.00;99.90
19930;DHT22;10127;47.780;9.606;2023-02-26T05:46:32;0.00;99.90
19930;DHT22;10127;47.780;9.606;2023-02-26T05:48:58;0.00;99.90
19930;DHT22;10127;47.780;9.606;2023-02-26T05:51:23;0.10;99.90
19930;DHT22;10127;47.780;9.606;2023-02-26T05:53:49;0.10;99.90
19930;DHT22;10127;47.780;9.606;2023-02-26T05:56:15;0.00;99.90
19930;DHT22;10127;47.780;9.606;2023-02-26T05:58:41;0.00;99.90
19930;DHT22;10127;47.780;9.606;2023-02-26T06:01:06;0.00;99.90
19930;DHT22;10127;47.780;9.606;2023-02-26T06:03:32;-0.10;99.90
19930;DHT22;10127;47.780;9.606;2023-02-26T06:05:57;-0.10;99.90
19930;DHT22;10127;47.780;9.606;2023-02-26T06:08:23;-0.20;99.90
19930;DHT22;10127;47.780;9.606;2023-02-26T06:10:49;-0.20;99.90
19930;DHT22;10127;47.780;9.606;2023-02-26T06:13:16;-0.10;99.90
19930;DHT22;10127;47.780;9.606;2023-02-26T06:15:41;-0.10;99.90
19930;DHT22;10127;47.780;9.606;2023-02-26T06:18:07;-0.20;99.90
19930;DHT22;10127;47.780;9.606;2023-02-26T06:20:33;-0.20;99.90
19930;DHT22;10127;47.780;9.606;2023-02-26T06:22:58;-0.20;99.90
19930;DHT22;10127;47.780;9.606;2023-02-26T06:25:24;-0.10;99.90
19930;DHT22;10127;47.780;9.606;2023-02-26T06:27:49;0.00;99.90
19930;DHT22;10127;47.780;9.606;2023-02-26T06:30:15;-0.10;99.90
19930;DHT22;10127;47.780;9.606;2023-02-26T06:32:43;-0.10;99.90
19930;DHT22;10127;47.780;9.606;2023-02-26T06:35:09;-0.10;99.90
19930;DHT22;10127;47.780;9.606;2023-02-26T06:37:35;-0.10;99.90
19930;DHT22;10127;47.780;9.606;2023-02-26T06:40:02;-0.20;99.90
19930;DHT22;10127;47.780;9.606;2023-02-26T06:42:28;-0.40;99.90
19930;DHT22;10127;47.780;9.606;2023-02-26T06:44:54;-0.50;99.90
19930;DHT22;10127;47.780;9.606;2023-02-26T06:47:21;-0.50;99.90
19930;DHT22;10127;47.780;9.606;2023-02-26T06:49:47;-0.60;99.90
19930;DHT22;10127;47.780;9.606;2023-02-26T06:52:13;-0.60;99.90
19930;DHT22;10127;47.780;9.606;2023-02-26T06:54:39;-0.50;99.90
19930;DHT22;10127;47.780;9.606;2023-02-26T06:57:05;-0.40;99.90
19930;DHT22;10127;47.780;9.606;2023-02-26T06:59:30;-0.50;99.90
19930;DHT22;10127;47.780;9.606;2023-02-26T07:01:56;-0.40;99.90
19930;DHT22;10127;47.780;9.606;2023-02-26T07:04:22;-0.30;99.90
19930;DHT22;10127;47.780;9.606;2023-02-26T07:06:47;-0.10;99.90
19930;DHT22;10127;47.780;9.606;2023-02-26T07:09:13;0.10;99.90
19930;DHT22;10127;47.780;9.606;2023-02-26T07:11:38;0.10;99.90
19930;DHT22;10127;47.780;9.606;2023-02-26T07:14:04;0.10;99.90
19930;DHT22;10127;47.780;9.606;2023-02-26T07:16:29;0.30;99.90
19930;DHT22;10127;47.780;9.606;2023-02-26T07:18:55;0.50;99.90
19930;DHT22;10127;47.780;9.606;2023-02-26T07:21:20;0.40;99.90
19930;DHT22;10127;47.780;9.606;2023-02-26T07:23:46;0.60;99.90
19930;DHT22;10127;47.780;9.606;2023-02-26T07:26:11;0.70;99.90
19930;DHT22;10127;47.780;9.606;2023-02-26T07:28:37;0.70;99.90
19930;DHT22;10127;47.780;9.606;2023-02-26T07:31:03;0.70;99.90
19930;DHT22;10127;47.780;9.606;2023-02-26T07:33:28;0.90;99.90
19930;DHT22;10127;47.780;9.606;2023-02-26T07:35:56;1.00;99.90
19930;DHT22;10127;47.780;9.606;2023-02-26T07:38:21;1.00;99.90
19930;DHT22;10127;47.780;9.606;2023-02-26T07:40:47;1.10;99.90
19930;DHT22;10127;47.780;9.606;2023-02-26T07:43:13;1.30;99.90
19930;DHT22;10127;47.780;9.606;2023-02-26T07:45:38;1.10;99.90
19930;DHT22;10127;47.780;9.606;2023-02-26T07:48:04;0.60;99.90
19930;DHT22;10127;47.780;9.606;2023-02-26T07:50:29;0.50;99.90
19930;DHT22;10127;47.780;9.606;2023-02-26T07:52:55;0.40;99.90
19930;DHT22;10127;47.780;9.606;2023-02-26T07:55:20;0.50;99.90
19930;DHT22;10127;47.780;9.606;2023-02-26T07:57:46;0.80;99.90
19930;DHT22;10127;47.780;9.606;2023-02-26T08:00:13;0.80;99.90
19930;DHT22;10127;47.780;9.606;2023-02-26T08:02:39;0.60;99.90
19930;DHT22;10127;47.780;9.606;2023-02-26T08:05:05;0.40;99.90
19930;DHT22;10127;47.780;9.606;2023-02-26T08:07:31;0.40;99.90
19930;DHT22;10127;47.780;9.606;2023-02-26T08:09:57;0.30;99.90
19930;DHT22;10127;47.780;9.606;2023-02-26T08:12:22;0.30;99.90
19930;DHT22;10127;47.780;9.606;2023-02-26T08:14:48;0.50;99.90
19930;DHT22;10127;47.780;9.606;2023-02-26T08:17:14;0.40;99.90
19930;DHT22;10127;47.780;9.606;2023-02-26T08:19:39;0.30;99.90
19930;DHT22;10127;47.780;9.606;2023-02-26T08:22:05;0.30;99.90
19930;DHT22;10127;47.780;9.606;2023-02-26T08:24:30;0.70;99.90
19930;DHT22;10127;47.780;9.606;2023-02-26T08:26:56;0.60;99.90
19930;DHT22;10127;47.780;9.606;2023-02-26T08:29:22;0.50;99.90
19930;DHT22;10127;47.780;9.606;2023-02-26T08:31:47;0.40;99.90
19930;DHT22;10127;47.780;9.606;2023-02-26T08:34:13;0.70;99.90
19930;DHT22;10127;47.780;9.606;2023-02-26T08:36:38;0.90;99.90
19930;DHT22;10127;47.780;9.606;2023-02-26T08:39:04;0.70;99.90
19930;DHT22;10127;47.780;9.606;2023-02-26T08:41:31;0.80;99.90
19930;DHT22;10127;47.780;9.606;2023-02-26T08:43:58;1.10;99.90
19930;DHT22;10127;47.780;9.606;2023-02-26T08:46:24;1.30;99.90
19930;DHT22;10127;47.780;9.606;2023-02-26T08:48:50;1.20;99.90
19930;DHT22;10127;47.780;9.606;2023-02-26T08:51:15;1.00;99.90
19930;DHT22;10127;47.780;9.606;2023-02-26T08:53:43;1.00;99.90
19930;DHT22;10127;47.780;9.606;2023-02-26T08:56:10;1.00;99.90
19930;DHT22;10127;47.780;9.606;2023-02-26T08:58:35;1.40;99.90
19930;DHT22;10127;47.780;9.606;2023-02-26T09:01:01;1.60;99.90
19930;DHT22;10127;47.780;9.606;2023-02-26T09:03:27;1.30;99.90
19930;DHT22;10127;47.780;9.606;2023-02-26T09:05:52;1.20;99.90
19930;DHT22;10127;47.780;9.606;2023-02-26T09:08:18;0.90;99.90
19930;DHT22;10127;47.780;9.606;2023-02-26T09:10:45;1.10;99.90
19930;DHT22;10127;47.780;9.606;2023-02-26T09:13:11;1.20;99.90
19930;DHT22;10127;47.780;9.606;2023-02-26T09:15:36;1.30;99.90
19930;DHT22;10127;47.780;9.606;2023-02-26T09:18:02;1.20;99.90
19930;DHT22;10127;47.780;9.606;2023-02-26T09:20:28;1.10;99.90
19930;DHT22;10127;47.780;9.606;2023-02-26T09:22:53;1.30;99.90
19930;DHT22;10127;47.780;9.606;2023-02-26T09:25:19;1.30;99.90
19930;DHT22;10127;47.780;9.606;2023-02-26T09:27:44;1.60;99.90
19930;DHT22;10127;47.780;9.606;2023-02-26T09:30:11;1.40;99.90
19930;DHT22;10127;47.780;9.606;2023-02-26T09:32:37;1.40;99.90
19930;DHT22;10127;47.780;9.606;2023-02-26T09:35:03;1.60;99.90
19930;DHT22;10127;47.780;9.606;2023-02-26T09:37:30;1.60;99.90
19930;DHT22;10127;47.780;9.606;2023-02-26T09:39:55;1.50;99.90
19930;DHT22;10127;47.780;9.606;2023-02-26T09:42:59;1.40;99.90
19930;DHT22;10127;47.780;9.606;2023-02-26T09:45:33;1.40;99.90
19930;DHT22;10127;47.780;9.606;2023-02-26T09:48:03;1.60;99.90
19930;DHT22;10127;47.780;9.606;2023-02-26T09:50:37;1.50;99.90
19930;DHT22;10127;47.780;9.606;2023-02-26T09:53:20;1.60;99.90
19930;DHT22;10127;47.780;9.606;2023-02-26T09:55:48;1.60;99.90
19930;DHT22;10127;47.780;9.606;2023-02-26T09:58:39;1.60;99.90
19930;DHT22;10127;47.780;9.606;2023-02-26T10:04:03;2.40;99.90
19930;DHT22;10127;47.780;9.606;2023-02-26T10:09:57;2.00;99.90
19930;DHT22;10127;47.780;9.606;2023-02-26T10:12:28;2.10;99.90
19930;DHT22;10127;47.780;9.606;2023-02-26T10:15:22;2.00;99.90
19930;DHT22;10127;47.780;9.606;2023-02-26T10:18:08;2.00;99.90
19930;DHT22;10127;47.780;9.606;2023-02-26T10:26:06;1.70;99.90
19930;DHT22;10127;47.780;9.606;2023-02-26T10:28:37;1.70;99.90
19930;DHT22;10127;47.780;9.606;2023-02-26T10:39:22;1.50;99.90
19930;DHT22;10127;47.780;9.606;2023-02-26T10:41:51;1.40;99.90
19930;DHT22;10127;47.780;9.606;2023-02-26T10:44:34;1.60;99.90
19930;DHT22;10127;47.780;9.606;2023-02-26T10:47:09;1.80;99.90
19930;DHT22;10127;47.780;9.606;2023-02-26T10:52:19;1.90;99.90
19930;DHT22;10127;47.780;9.606;2023-02-26T10:55:01;2.10;99.90
19930;DHT22;10127;47.780;9.606;2023-02-26T10:57:30;2.70;99.90
19930;DHT22;10127;47.780;9.606;2023-02-26T10:59:59;2.70;99.90
19930;DHT22;10127;47.780;9.606;2023-02-26T11:02:47;2.60;99.90
19930;DHT22;10127;47.780;9.606;2023-02-26T11:05:19;2.60;99.90
19930;DHT22;10127;47.780;9.606;2023-02-26T11:07:50;2.80;99.90
19930;DHT22;10127;47.780;9.606;2023-02-26T11:10:21;2.70;99.90
19930;DHT22;10127;47.780;9.606;2023-02-26T11:12:47;2.40;99.90
19930;DHT22;10127;47.780;9.606;2023-02-26T11:15:20;2.40;99.90
19930;DHT22;10127;47.780;9.606;2023-02-26T11:17:53;2.40;99.90
19930;DHT22;10127;47.780;9.606;2023-02-26T11:20:29;2.60;99.90
19930;DHT22;10127;47.780;9.606;2023-02-26T11:22:57;2.90;99.90
19930;DHT22;10127;47.780;9.606;2023-02-26T11:25:28;3.10;99.90
19930;DHT22;10127;47.780;9.606;2023-02-26T11:28:53;2.50;99.90
19930;DHT22;10127;47.780;9.606;2023-02-26T11:30:51;2.20;99.90
19930;DHT22;10127;47.780;9.606;2023-02-26T11:33:23;2.70;99.90
19930;DHT22;10127;47.780;9.606;2023-02-26T11:35:51;2.60;99.90
19930;DHT22;10127;47.780;9.606;2023-02-26T11:38:21;2.40;99.90
19930;DHT22;10127;47.780;9.606;2023-02-26T11:40:50;2.30;99.90
19930;DHT22;10127;47.780;9.606;2023-02-26T11:43:19;2.20;99.90
19930;DHT22;10127;47.780;9.606;2023-02-26T11:45:48;2.30;99.90
19930;DHT22;10127;47.780;9.606;2023-02-26T11:48:25;2.60;99.90
19930;DHT22;10127;47.780;9.606;2023-02-26T11:50:59;2.50;99.90
19930;DHT22;10127;47.780;9.606;2023-02-26T11:53:34;2.70;99.90
19930;DHT22;10127;47.780;9.606;2023-02-26T11:56:10;2.50;99.90
19930;DHT22;10127;47.780;9.606;2023-02-26T11:58:37;2.60;99.90
19930;DHT22;10127;47.780;9.606;2023-02-26T12:01:06;2.40;99.90
19930;DHT22;10127;47.780;9.606;2023-02-26T12:03:35;2.50;99.90
19930;DHT22;10127;47.780;9.606;2023-02-26T12:06:01;2.40;99.90
19930;DHT22;10127;47.780;9.606;2023-02-26T12:08:34;2.70;99.90
19930;DHT22;10127;47.780;9.606;2023-02-26T12:14:43;2.40;99.90
19930;DHT22;10127;47.780;9.606;2023-02-26T12:20:01;2.80;99.90
19930;DHT22;10127;47.780;9.606;2023-02-26T12:31:14;3.20;99.90
19930;DHT22;10127;47.780;9.606;2023-02-26T12:39:39;2.90;99.90
19930;DHT22;10127;47.780;9.606;2023-02-26T12:47:54;2.70;99.90
19930;DHT22;10127;47.780;9.606;2023-02-26T12:53:32;2.60;99.90
19930;DHT22;10127;47.780;9.606;2023-02-26T12:58:47;2.40;99.90
19930;DHT22;10127;47.780;9.606;2023-02-26T13:01:37;2.30;99.90
19930;DHT22;10127;47.780;9.606;2023-02-26T13:06:56;2.10;99.90
19930;DHT22;10127;47.780;9.606;2023-02-26T13:20:25;2.40;99.90
19930;DHT22;10127;47.780;9.606;2023-02-26T13:22:58;2.40;99.90
19930;DHT22;10127;47.780;9.606;2023-02-26T13:25:39;2.40;99.90
19930;DHT22;10127;47.780;9.606;2023-02-26T13:30:50;2.30;99.90
19930;DHT22;10127;47.780;9.606;2023-02-26T13:33:20;2.50;99.90
19930;DHT22;10127;47.780;9.606;2023-02-26T13:35:49;3.00;99.90
19930;DHT22;10127;47.780;9.606;2023-02-26T13:41:07;3.10;99.90
19930;DHT22;10127;47.780;9.606;2023-02-26T13:43:53;3.00;99.90
19930;DHT22;10127;47.780;9.606;2023-02-26T13:51:56;3.30;99.90
19930;DHT22;10127;47.780;9.606;2023-02-26T13:57:23;3.30;99.90
19930;DHT22;10127;47.780;9.606;2023-02-26T14:05:54;2.90;99.90
19930;DHT22;10127;47.780;9.606;2023-02-26T14:11:23;3.00;99.90
19930;DHT22;10127;47.780;9.606;2023-02-26T14:14:21;2.80;99.90
19930;DHT22;10127;47.780;9.606;2023-02-26T14:19:38;3.30;99.90
19930;DHT22;10127;47.780;9.606;2023-02-26T14:27:36;3.30;99.90
19930;DHT22;10127;47.780;9.606;2023-02-26T14:30:29;2.90;99.90
19930;DHT22;10127;47.780;9.606;2023-02-26T14:35:42;2.60;99.90
19930;DHT22;10127;47.780;9.606;2023-02-26T14:38:20;3.00;99.90
19930;DHT22;10127;47.780;9.606;2023-02-26T14:40:57;2.90;99.90
19930;DHT22;10127;47.780;9.606;2023-02-26T14:43:40;3.20;99.90
19930;DHT22;10127;47.780;9.606;2023-02-26T14:46:07;3.20;99.90
19930;DHT22;10127;47.780;9.606;2023-02-26T14:48:34;3.10;99.90
19930;DHT22;10127;47.780;9.606;2023-02-26T15:02:32;3.00;99.90
19930;DHT22;10127;47.780;9.606;2023-02-26T15:13:15;3.00;99.90
19930;DHT22;10127;47.780;9.606;2023-02-26T15:16:03;1.90;99.90
19930;DHT22;10127;47.780;9.606;2023-02-26T15:24:02;0.50;99.90
19930;DHT22;10127;47.780;9.606;2023-02-26T15:26:31;0.60;99.90
19930;DHT22;10127;47.780;9.606;2023-02-26T15:28:59;0.90;99.90
19930;DHT22;10127;47.780;9.606;2023-02-26T15:31:30;1.60;99.90
19930;DHT22;10127;47.780;9.606;2023-02-26T15:33:57;1.80;99.90
19930;DHT22;10127;47.780;9.606;2023-02-26T15:36:23;1.50;99.90
19930;DHT22;10127;47.780;9.606;2023-02-26T15:38:53;1.10;99.90
19930;DHT22;10127;47.780;9.606;2023-02-26T15:41:19;0.90;99.90
19930;DHT22;10127;47.780;9.606;2023-02-26T15:43:49;1.00;99.90
19930;DHT22;10127;47.780;9.606;2023-02-26T15:46:15;0.90;99.90
19930;DHT22;10127;47.780;9.606;2023-02-26T15:48:41;0.80;99.90
19930;DHT22;10127;47.780;9.606;2023-02-26T15:51:11;0.70;99.90
19930;DHT22;10127;47.780;9.606;2023-02-26T15:53:42;0.60;99.90
19930;DHT22;10127;47.780;9.606;2023-02-26T15:56:16;0.40;99.90
19930;DHT22;10127;47.780;9.606;2023-02-26T15:58:57;0.60;99.90
19930;DHT22;10127;47.780;9.606;2023-02-26T16:01:25;0.70;99.90
19930;DHT22;10127;47.780;9.606;2023-02-26T16:03:56;0.80;99.90
19930;DHT22;10127;47.780;9.606;2023-02-26T16:06:29;0.90;99.90
19930;DHT22;10127;47.780;9.606;2023-02-26T16:08:55;0.90;99.90
19930;DHT22;10127;47.780;9.606;2023-02-26T16:11:21;0.90;99.90
19930;DHT22;10127;47.780;9.606;2023-02-26T16:13:50;1.00;99.90
19930;DHT22;10127;47.780;9.606;2023-02-26T16:16:25;1.10;99.90
19930;DHT22;10127;47.780;9.606;2023-02-26T16:18:53;1.00;99.90
19930;DHT22;10127;47.780;9.606;2023-02-26T16:21:30;1.10;99.90
19930;DHT22;10127;47.780;9.606;2023-02-26T16:23:57;1.10;99.90
19930;DHT22;10127;47.780;9.606;2023-02-26T16:26:30;1.30;99.90
19930;DHT22;10127;47.780;9.606;2023-02-26T16:29:00;1.40;99.90
19930;DHT22;10127;47.780;9.606;2023-02-26T16:31:26;1.50;99.90
19930;DHT22;10127;47.780;9.606;2023-02-26T16:33:58;1.70;99.90
19930;DHT22;10127;47.780;9.606;2023-02-26T16:36:29;1.90;99.90
19930;DHT22;10127;47.780;9.606;2023-02-26T16:39:14;2.20;99.90
19930;DHT22;10127;47.780;9.606;2023-02-26T16:41:46;2.10;99.90
19930;DHT22;10127;47.780;9.606;2023-02-26T16:46:56;1.70;99.90
19930;DHT22;10127;47.780;9.606;2023-02-26T16:49:32;1.50;99.90
19930;DHT22;10127;47.780;9.606;2023-02-26T16:51:58;1.10;99.90
19930;DHT22;10127;47.780;9.606;2023-02-26T16:54:29;1.10;99.90
19930;DHT22;10127;47.780;9.606;2023-02-26T16:56:59;1.20;99.90
19930;DHT22;10127;47.780;9.606;2023-02-26T16:59:31;1.40;99.90
19930;DHT22;10127;47.780;9.606;2023-02-26T17:02:34;1.50;99.90
19930;DHT22;10127;47.780;9.606;2023-02-26T17:05:35;1.50;99.90
19930;DHT22;10127;47.780;9.606;2023-02-26T17:08:08;1.60;99.90
19930;DHT22;10127;47.780;9.606;2023-02-26T17:10:47;1.60;99.90
19930;DHT22;10127;47.780;9.606;2023-02-26T17:13:34;1.60;99.90
19930;DHT22;10127;47.780;9.606;2023-02-26T17:16:05;1.60;99.90
19930;DHT22;10127;47.780;9.606;2023-02-26T17:18:32;1.60;99.90
19930;DHT22;10127;47.780;9.606;2023-02-26T17:20:58;1.50;99.90
19930;DHT22;10127;47.780;9.606;2023-02-26T17:23:30;1.50;99.90
19930;DHT22;10127;47.780;9.606;2023-02-26T17:25:57;1.40;99.90
19930;DHT22;10127;47.780;9.606;2023-02-26T17:28:29;1.40;99.90
19930;DHT22;10127;47.780;9.606;2023-02-26T17:30:56;1.30;99.90
19930;DHT22;10127;47.780;9.606;2023-02-26T17:33:22;1.30;99.90
19930;DHT22;10127;47.780;9.606;2023-02-26T17:35:48;1.20;99.90
19930;DHT22;10127;47.780;9.606;2023-02-26T17:38:14;1.20;99.90
19930;DHT22;10127;47.780;9.606;2023-02-26T17:40:42;1.20;99.90
19930;DHT22;10127;47.780;9.606;2023-02-26T17:43:08;1.00;99.90
19930;DHT22;10127;47.780;9.606;2023-02-26T17:45:35;1.00;99.90
19930;DHT22;10127;47.780;9.606;2023-02-26T17:48:01;0.90;99.90
19930;DHT22;10127;47.780;9.606;2023-02-26T17:50:34;0.90;99.90
19930;DHT22;10127;47.780;9.606;2023-02-26T17:53:03;0.80;99.90
19930;DHT22;10127;47.780;9.606;2023-02-26T17:55:29;0.80;99.90
19930;DHT22;10127;47.780;9.606;2023-02-26T17:57:56;0.80;99.90
19930;DHT22;10127;47.780;9.606;2023-02-26T18:00:22;0.80;99.90
19930;DHT22;10127;47.780;9.606;2023-02-26T18:02:48;0.70;99.90
19930;DHT22;10127;47.780;9.606;2023-02-26T18:05:16;0.80;99.90
19930;DHT22;10127;47.780;9.606;2023-02-26T18:07:42;0.70;99.90
19930;DHT22;10127;47.780;9.606;2023-02-26T18:10:20;0.70;99.90
19930;DHT22;10127;47.780;9.606;2023-02-26T18:12:47;0.70;99.90
19930;DHT22;10127;47.780;9.606;2023-02-26T18:15:12;0.60;99.90
19930;DHT22;10127;47.780;9.606;2023-02-26T18:17:39;0.70;99.90
19930;DHT22;10127;47.780;9.606;2023-02-26T18:20:05;0.60;99.90
19930;DHT22;10127;47.780;9.606;2023-02-26T18:22:37;0.70;99.90
19930;DHT22;10127;47.780;9.606;2023-02-26T18:25:03;0.80;99.90
19930;DHT22;10127;47.780;9.606;2023-02-26T18:27:29;0.80;99.90
19930;DHT22;10127;47.780;9.606;2023-02-26T18:29:54;0.90;99.90
19930;DHT22;10127;47.780;9.606;2023-02-26T18:32:23;0.80;99.90
19930;DHT22;10127;47.780;9.606;2023-02-26T18:34:50;0.80;99.90
19930;DHT22;10127;47.780;9.606;2023-02-26T18:37:17;0.80;99.90
19930;DHT22;10127;47.780;9.606;2023-02-26T18:39:44;0.80;99.90
19930;DHT22;10127;47.780;9.606;2023-02-26T18:44:43;0.70;99.90
19930;DHT22;10127;47.780;9.606;2023-02-26T18:47:09;0.70;99.90
19930;DHT22;10127;47.780;9.606;2023-02-26T18:49:35;0.60;99.90
19930;DHT22;10127;47.780;9.606;2023-02-26T18:52:01;0.50;99.90
19930;DHT22;10127;47.780;9.606;2023-02-26T18:54:26;0.50;99.90
19930;DHT22;10127;47.780;9.606;2023-02-26T18:56:52;0.60;99.90
19930;DHT22;10127;47.780;9.606;2023-02-26T18:59:18;0.50;99.90
19930;DHT22;10127;47.780;9.606;2023-02-26T19:01:44;0.60;99.90
19930;DHT22;10127;47.780;9.606;2023-02-26T19:04:09;0.60;99.90
19930;DHT22;10127;47.780;9.606;2023-02-26T19:06:35;0.60;99.90
19930;DHT22;10127;47.780;9.606;2023-02-26T19:09:02;0.50;99.90
19930;DHT22;10127;47.780;9.606;2023-02-26T19:11:29;0.50;99.90
19930;DHT22;10127;47.780;9.606;2023-02-26T19:13:54;0.70;99.90